Time;durP1;ratioP1;P1;durP2;ratioP2;P2;SDS_P1;SDS_P2;PMS_P1;PMS_P2;Temp;Humidity;BMP_temperature;BMP_pressure;BME280_temperature;BME280_humidity;BME280_pressure;Samples;Min_cycle;Max_cycle;Signal;HPM_P1;HPM_P2
2022/03/06 00:00:08;;;;;;;34.53;19.70;;;5.90;67.40;;;;;;4995622;28;20030;-77
2022/03/06 00:02:36;;;;;;;29.13;17.38;;;5.60;68.00;;;;;;5006237;28;20077;-77
2022/03/06 00:05:03;;;;;;;30.02;17.67;;;5.50;68.50;;;;;;4996804;28;20136;-79
2022/03/06 00:07:28;;;;;;;30.98;18.73;;;5.70;69.00;;;;;;5000592;28;20064;-78
2022/03/06 00:09:54;;;;;;;31.25;18.75;;;5.90;68.40;;;;;;5005809;28;20477;-79
2022/03/06 00:12:20;;;;;;;31.63;18.50;;;5.90;67.80;;;;;;4998455;28;20033;-79
2022/03/06 00:14:45;;;;;;;32.85;18.67;;;5.80;68.10;;;;;;5014449;28;20034;-79
2022/03/06 00:17:14;;;;;;;35.30;19.73;;;5.60;68.40;;;;;;5013253;28;20029;-80
2022/03/06 00:19:39;;;;;;;32.75;19.63;;;5.50;68.70;;;;;;4997954;28;20057;-76
2022/03/06 00:22:05;;;;;;;32.15;18.13;;;5.30;69.50;;;;;;4997806;28;20398;-77
2022/03/06 00:24:30;;;;;;;36.00;19.50;;;5.20;70.10;;;;;;5012235;28;20076;-77
2022/03/06 00:26:56;;;;;;;35.13;20.42;;;5.10;70.30;;;;;;5014595;28;20037;-77
2022/03/06 00:29:21;;;;;;;33.40;19.00;;;5.20;70.50;;;;;;5014226;28;20045;-77
2022/03/06 00:31:47;;;;;;;35.83;19.20;;;5.10;70.60;;;;;;5001921;28;20477;-78
2022/03/06 00:34:13;;;;;;;34.08;18.48;;;5.10;70.70;;;;;;4996095;28;20061;-78
2022/03/06 00:36:38;;;;;;;31.17;18.52;;;4.90;71.10;;;;;;4996523;28;20045;-78
2022/03/06 00:39:05;;;;;;;34.42;18.48;;;4.90;72.10;;;;;;4995776;28;20054;-78
2022/03/06 00:41:31;;;;;;;29.95;17.60;;;5.00;71.50;;;;;;4996033;28;20038;-79
2022/03/06 00:43:56;;;;;;;30.58;17.38;;;5.20;72.20;;;;;;4995611;28;20038;-78
2022/03/06 00:46:22;;;;;;;35.17;18.95;;;5.10;71.20;;;;;;4996327;28;20034;-78
2022/03/06 00:48:48;;;;;;;28.27;17.08;;;5.10;71.30;;;;;;4995929;28;20034;-78
2022/03/06 00:51:14;;;;;;;31.67;18.80;;;5.00;72.30;;;;;;4995641;28;20444;-78
2022/03/06 00:53:42;;;;;;;28.50;16.98;;;5.10;71.60;;;;;;4995651;28;20489;-78
2022/03/06 00:56:11;;;;;;;31.75;18.85;;;4.80;71.80;;;;;;4995770;28;20034;-78
2022/03/06 00:58:37;;;;;;;31.10;17.60;;;4.70;72.40;;;;;;4995495;28;20113;-78
2022/03/06 01:01:04;;;;;;;29.23;17.60;;;4.70;73.40;;;;;;4996151;28;20363;-78
2022/03/06 01:03:31;;;;;;;36.65;18.88;;;4.70;72.70;;;;;;4995725;28;20076;-78
2022/03/06 01:05:57;;;;;;;30.88;17.50;;;4.60;72.60;;;;;;4995756;28;20030;-78
2022/03/06 01:08:23;;;;;;;36.70;18.52;;;4.40;73.40;;;;;;4995210;28;20092;-78
2022/03/06 01:10:50;;;;;;;30.17;17.80;;;4.30;73.90;;;;;;4995581;28;20367;-78
2022/03/06 01:13:17;;;;;;;31.35;18.05;;;4.20;74.00;;;;;;4995483;28;20565;-78
2022/03/06 01:15:43;;;;;;;29.50;17.60;;;4.20;74.00;;;;;;4995219;28;20109;-78
2022/03/06 01:18:09;;;;;;;30.80;18.98;;;4.20;74.20;;;;;;4995252;28;20117;-78
2022/03/06 01:20:37;;;;;;;32.70;16.80;;;4.00;74.80;;;;;;4995155;28;20398;-78
2022/03/06 01:23:03;;;;;;;31.30;17.20;;;3.90;75.30;;;;;;4994719;28;20077;-78
2022/03/06 01:25:29;;;;;;;30.17;17.00;;;3.90;75.60;;;;;;4994954;28;20034;-78
2022/03/06 01:27:55;;;;;;;28.15;17.02;;;4.10;75.40;;;;;;4994921;28;20378;-77
2022/03/06 01:30:21;;;;;;;29.38;17.48;;;4.00;75.20;;;;;;4995117;28;20034;-77
2022/03/06 01:32:48;;;;;;;31.20;17.08;;;4.10;75.40;;;;;;4995440;28;20037;-77
2022/03/06 01:35:13;;;;;;;27.83;16.25;;;4.20;75.20;;;;;;4995004;28;20113;-77
2022/03/06 01:37:39;;;;;;;29.40;16.65;;;4.20;74.90;;;;;;4995358;28;20118;-78
2022/03/06 01:40:07;;;;;;;27.42;16.73;;;4.30;74.90;;;;;;5008695;28;20057;-77
2022/03/06 01:42:33;;;;;;;25.08;15.07;;;4.30;74.70;;;;;;5009034;28;20394;-78
2022/03/06 01:44:59;;;;;;;24.45;14.73;;;4.30;75.90;;;;;;4999380;28;20050;-78
2022/03/06 01:47:54;;;;;;;25.95;15.15;;;4.60;75.10;;;;;;5012046;28;20025;-78
2022/03/06 01:50:34;;;;;;;26.80;15.88;;;4.80;73.40;;;;;;5009437;28;20612;-78
2022/03/06 01:53:02;;;;;;;30.02;16.42;;;4.70;73.10;;;;;;5014547;28;20038;-76
2022/03/06 01:55:28;;;;;;;27.45;15.65;;;4.50;73.20;;;;;;5000561;28;20026;-76
2022/03/06 01:57:56;;;;;;;24.63;15.32;;;4.30;74.10;;;;;;4995123;28;20141;-76
2022/03/06 02:00:28;;;;;;;24.73;14.20;;;4.40;75.90;;;;;;4997105;28;20417;-76
2022/03/06 02:02:54;;;;;;;24.20;14.70;;;4.60;75.30;;;;;;5012408;28;20041;-77
2022/03/06 02:05:19;;;;;;;26.65;16.40;;;4.70;74.80;;;;;;5011330;28;20038;-76
2022/03/06 02:07:45;;;;;;;24.50;15.85;;;4.70;73.70;;;;;;5011283;28;20436;-76
2022/03/06 02:10:13;;;;;;;27.20;14.85;;;4.30;73.60;;;;;;4996558;28;20485;-76
2022/03/06 02:12:40;;;;;;;23.73;15.13;;;4.20;75.00;;;;;;4995896;28;20023;-76
2022/03/06 02:15:08;;;;;;;23.52;15.43;;;4.20;74.70;;;;;;4995876;28;20034;-78
2022/03/06 02:17:37;;;;;;;25.48;14.73;;;4.10;75.20;;;;;;5010804;28;20029;-79
2022/03/06 02:20:07;;;;;;;25.05;15.32;;;4.10;75.30;;;;;;5008083;28;20037;-80
2022/03/06 02:22:41;;;;;;;24.65;14.77;;;4.10;75.00;;;;;;5009630;28;20483;-79
2022/03/06 02:25:19;;;;;;;23.42;15.10;;;4.00;75.70;;;;;;4997159;28;20445;-80
2022/03/06 02:27:46;;;;;;;25.65;15.60;;;4.10;75.60;;;;;;4993366;28;20080;-80
2022/03/06 02:30:15;;;;;;;21.95;13.77;;;4.10;75.10;;;;;;5011510;28;20040;-79
2022/03/06 02:32:42;;;;;;;25.42;15.30;;;3.90;75.50;;;;;;4981909;28;20054;-79
2022/03/06 02:35:09;;;;;;;23.40;14.73;;;3.90;76.00;;;;;;4995733;28;20088;-79
2022/03/06 02:37:35;;;;;;;23.88;15.75;;;4.00;75.60;;;;;;4995039;28;20084;-79
2022/03/06 02:40:03;;;;;;;23.40;13.95;;;3.90;76.20;;;;;;4991230;28;20093;-79
2022/03/06 02:42:32;;;;;;;25.80;14.93;;;3.80;75.90;;;;;;4993017;28;20038;-79
2022/03/06 02:45:00;;;;;;;25.25;15.25;;;3.80;76.10;;;;;;4993808;28;20246;-79
2022/03/06 02:47:26;;;;;;;22.50;14.63;;;3.60;76.10;;;;;;4993497;28;20027;-79
2022/03/06 02:49:52;;;;;;;23.80;15.57;;;3.60;77.00;;;;;;4993192;28;20026;-79
2022/03/06 02:52:18;;;;;;;24.67;14.90;;;3.60;76.70;;;;;;4993489;28;20045;-79
2022/03/06 02:54:44;;;;;;;23.80;15.05;;;3.70;77.00;;;;;;4993537;28;20030;-79
2022/03/06 02:57:11;;;;;;;25.00;15.10;;;3.70;76.60;;;;;;4993481;28;20662;-79
2022/03/06 02:59:37;;;;;;;27.27;16.77;;;3.80;77.10;;;;;;4993580;28;20073;-79
2022/03/06 03:02:04;;;;;;;22.02;14.23;;;3.70;76.20;;;;;;4993453;28;20459;-79
2022/03/06 03:04:31;;;;;;;25.17;15.27;;;3.70;76.70;;;;;;4993742;28;20117;-78
2022/03/06 03:06:56;;;;;;;24.48;15.02;;;3.60;76.60;;;;;;4993520;28;20033;-79
2022/03/06 03:09:22;;;;;;;23.70;14.57;;;3.60;77.50;;;;;;4993278;28;20030;-80
2022/03/06 03:11:50;;;;;;;22.45;13.90;;;3.80;77.60;;;;;;4993030;28;20054;-80
2022/03/06 03:14:17;;;;;;;23.30;14.07;;;4.00;77.30;;;;;;4993570;28;20038;-77
2022/03/06 03:16:43;;;;;;;22.65;13.93;;;4.10;76.20;;;;;;4993552;28;20060;-77
2022/03/06 03:19:09;;;;;;;23.20;14.35;;;4.10;75.30;;;;;;4993390;28;20038;-77
2022/03/06 03:21:34;;;;;;;20.92;13.88;;;4.10;75.40;;;;;;4993263;28;20033;-77
2022/03/06 03:24:00;;;;;;;22.98;14.18;;;4.00;75.60;;;;;;4993358;28;20046;-77
2022/03/06 03:26:26;;;;;;;21.02;14.07;;;4.00;76.00;;;;;;4993864;28;20100;-77
2022/03/06 03:28:52;;;;;;;23.05;14.98;;;4.00;75.60;;;;;;4992959;28;20037;-77
2022/03/06 03:31:18;;;;;;;21.45;14.50;;;3.80;75.60;;;;;;4993646;28;20073;-79
2022/03/06 03:33:44;;;;;;;24.42;14.73;;;3.60;76.70;;;;;;4993255;28;20022;-79
2022/03/06 03:36:09;;;;;;;25.30;16.35;;;3.60;76.80;;;;;;4993628;28;20027;-79
2022/03/06 03:38:35;;;;;;;20.65;14.10;;;3.60;76.90;;;;;;4994584;28;20033;-79
2022/03/06 03:41:01;;;;;;;27.40;15.40;;;3.60;77.30;;;;;;4996930;28;20390;-79
2022/03/06 03:43:28;;;;;;;22.25;14.70;;;3.50;76.90;;;;;;4996856;28;20042;-79
2022/03/06 03:45:53;;;;;;;22.58;14.07;;;3.60;76.90;;;;;;4997231;28;20032;-79
2022/03/06 03:48:20;;;;;;;23.90;15.88;;;3.60;77.10;;;;;;4996871;28;20031;-79
2022/03/06 03:50:45;;;;;;;27.85;15.43;;;3.40;77.30;;;;;;4995865;28;20027;-78
2022/03/06 03:53:11;;;;;;;24.30;15.00;;;3.30;77.90;;;;;;4996497;28;20054;-78
2022/03/06 03:55:37;;;;;;;22.23;14.75;;;3.30;78.10;;;;;;4995972;28;20027;-78
2022/03/06 03:58:02;;;;;;;24.38;15.50;;;3.20;78.30;;;;;;4996668;28;20424;-78
2022/03/06 04:00:28;;;;;;;20.30;13.82;;;3.20;78.60;;;;;;4996265;28;20034;-78
2022/03/06 04:02:53;;;;;;;21.88;14.48;;;3.10;79.00;;;;;;4996942;28;20068;-79
2022/03/06 04:05:19;;;;;;;20.17;13.65;;;3.20;78.80;;;;;;4996637;28;20030;-78
2022/03/06 04:07:45;;;;;;;23.67;14.63;;;3.30;78.70;;;;;;4996813;28;20157;-78
2022/03/06 04:10:11;;;;;;;23.65;14.93;;;3.40;78.30;;;;;;4997055;28;20482;-78
2022/03/06 04:12:36;;;;;;;20.42;13.43;;;3.30;78.30;;;;;;4996535;28;20030;-78
2022/03/06 04:15:02;;;;;;;23.90;14.35;;;3.30;79.00;;;;;;4996554;28;20491;-78
2022/03/06 04:17:28;;;;;;;23.33;14.50;;;3.50;78.20;;;;;;4996681;28;20040;-78
2022/03/06 04:19:54;;;;;;;23.75;15.20;;;3.40;78.50;;;;;;4996789;28;20034;-78
2022/03/06 04:22:19;;;;;;;19.85;13.80;;;3.30;78.40;;;;;;4996480;28;20061;-78
2022/03/06 04:24:45;;;;;;;22.40;14.48;;;3.40;78.90;;;;;;4996335;28;20034;-78
2022/03/06 04:27:10;;;;;;;22.88;15.00;;;3.50;78.10;;;;;;4996070;28;20041;-78
2022/03/06 04:29:36;;;;;;;21.90;14.93;;;3.30;78.30;;;;;;4996316;28;20030;-79
2022/03/06 04:32:03;;;;;;;19.17;12.93;;;3.30;78.60;;;;;;4996360;28;20042;-79
2022/03/06 04:34:28;;;;;;;22.48;14.30;;;3.40;78.60;;;;;;4996421;28;20042;-79
2022/03/06 04:36:54;;;;;;;19.92;13.30;;;3.40;78.30;;;;;;4996259;28;20080;-79
2022/03/06 04:39:20;;;;;;;20.58;13.85;;;3.60;78.30;;;;;;4996081;28;20042;-79
2022/03/06 04:41:45;;;;;;;21.58;13.77;;;3.50;77.90;;;;;;4996408;28;20046;-79
2022/03/06 04:44:13;;;;;;;21.48;13.43;;;3.40;78.00;;;;;;4995903;28;20042;-79
2022/03/06 04:46:39;;;;;;;21.50;13.93;;;3.40;78.40;;;;;;4996187;28;20022;-77
2022/03/06 04:49:04;;;;;;;23.45;14.23;;;3.30;78.50;;;;;;4996039;28;20382;-77
2022/03/06 04:51:30;;;;;;;22.88;14.82;;;3.10;79.60;;;;;;4995180;28;20033;-77
2022/03/06 04:53:55;;;;;;;23.63;14.52;;;3.00;79.90;;;;;;4996179;28;20029;-77
2022/03/06 04:56:24;;;;;;;21.80;14.07;;;2.90;80.50;;;;;;4996196;28;20030;-78
2022/03/06 04:58:50;;;;;;;22.27;13.77;;;2.90;80.40;;;;;;4995582;28;20037;-78
2022/03/06 05:01:16;;;;;;;22.23;13.93;;;2.90;80.60;;;;;;4995872;28;20076;-78
2022/03/06 05:03:41;;;;;;;18.77;13.27;;;3.10;81.10;;;;;;4995542;28;20066;-78
2022/03/06 05:06:07;;;;;;;22.20;14.52;;;3.20;81.40;;;;;;4995624;28;20026;-78
2022/03/06 05:08:32;;;;;;;21.30;13.57;;;3.20;80.30;;;;;;4996026;28;20030;-78
2022/03/06 05:10:58;;;;;;;20.80;13.70;;;3.00;80.70;;;;;;4995495;28;20080;-77
2022/03/06 05:13:24;;;;;;;24.35;13.77;;;3.00;81.40;;;;;;4995210;28;20053;-77
2022/03/06 05:15:50;;;;;;;21.20;13.38;;;3.00;82.50;;;;;;4995442;28;20466;-78
2022/03/06 05:18:16;;;;;;;19.90;13.23;;;3.20;81.80;;;;;;4995637;28;20029;-78
2022/03/06 05:20:42;;;;;;;24.70;14.48;;;3.20;80.70;;;;;;4995303;28;20031;-77
2022/03/06 05:23:07;;;;;;;17.70;12.38;;;3.20;80.40;;;;;;4995429;28;20113;-75
2022/03/06 05:25:33;;;;;;;21.77;12.55;;;3.10;80.90;;;;;;4995243;28;20022;-76
2022/03/06 05:27:59;;;;;;;20.00;12.88;;;3.20;81.20;;;;;;4994738;28;20375;-76
2022/03/06 05:30:24;;;;;;;20.88;14.20;;;3.40;80.60;;;;;;4994982;28;20037;-77
2022/03/06 05:32:50;;;;;;;21.92;13.35;;;3.40;79.90;;;;;;4995647;28;20433;-77
2022/03/06 05:35:16;;;;;;;19.95;13.73;;;3.30;79.50;;;;;;4994422;28;20030;-76
2022/03/06 05:37:41;;;;;;;21.73;13.45;;;3.40;80.50;;;;;;4977974;28;20057;-77
2022/03/06 05:40:08;;;;;;;20.75;13.18;;;3.50;79.50;;;;;;5008880;28;20034;-76
2022/03/06 05:42:34;;;;;;;20.73;13.93;;;3.60;78.90;;;;;;5012281;28;20030;-76
2022/03/06 05:45:00;;;;;;;18.23;12.73;;;3.50;78.90;;;;;;4996374;28;20385;-76
2022/03/06 05:47:25;;;;;;;21.38;13.68;;;3.50;79.40;;;;;;4997582;28;20037;-77
2022/03/06 05:49:51;;;;;;;20.17;14.55;;;3.60;79.20;;;;;;5005423;28;20465;-77
2022/03/06 05:52:16;;;;;;;22.65;14.20;;;3.50;78.50;;;;;;4999361;28;20470;-76
2022/03/06 05:54:42;;;;;;;21.55;14.00;;;3.40;79.10;;;;;;4996200;28;20475;-76
2022/03/06 05:57:08;;;;;;;21.08;14.38;;;2.90;80.30;;;;;;4996061;28;20058;-77
2022/03/06 05:59:34;;;;;;;18.45;13.00;;;2.90;81.20;;;;;;4996146;28;20057;-77
2022/03/06 06:02:00;;;;;;;22.63;14.50;;;3.00;81.80;;;;;;4995221;28;20057;-77
2022/03/06 06:04:26;;;;;;;20.95;13.52;;;3.10;81.40;;;;;;4996125;28;20046;-76
2022/03/06 06:06:52;;;;;;;19.92;13.00;;;3.20;81.40;;;;;;5005183;28;20040;-77
2022/03/06 06:09:18;;;;;;;19.08;13.70;;;3.30;80.90;;;;;;5009088;28;20104;-78
2022/03/06 06:11:43;;;;;;;20.63;13.80;;;3.50;80.60;;;;;;5003383;28;20028;-78
2022/03/06 06:14:09;;;;;;;18.38;13.27;;;3.40;80.50;;;;;;5001471;28;20034;-78
2022/03/06 06:16:35;;;;;;;18.42;13.52;;;3.50;80.40;;;;;;4995842;28;20386;-78
2022/03/06 06:19:00;;;;;;;21.23;14.60;;;3.50;80.50;;;;;;4996741;28;20030;-75
2022/03/06 06:21:26;;;;;;;22.77;14.80;;;3.50;81.60;;;;;;4997322;28;20097;-77
2022/03/06 06:23:52;;;;;;;22.23;14.75;;;3.40;80.60;;;;;;5012686;28;20485;-77
2022/03/06 06:26:18;;;;;;;25.17;15.30;;;3.40;81.50;;;;;;5012711;28;20022;-77
2022/03/06 06:28:43;;;;;;;19.25;13.20;;;3.40;81.20;;;;;;5010445;28;20030;-77
2022/03/06 06:31:09;;;;;;;20.42;14.02;;;3.30;82.70;;;;;;5012204;28;20021;-77
2022/03/06 06:33:35;;;;;;;21.42;15.02;;;3.40;82.20;;;;;;4998287;28;20111;-77
2022/03/06 06:36:01;;;;;;;22.98;15.20;;;3.30;82.30;;;;;;5002323;28;20028;-78
2022/03/06 06:38:28;;;;;;;23.75;14.50;;;3.40;82.00;;;;;;4999680;28;20069;-78
2022/03/06 06:40:54;;;;;;;22.27;15.00;;;3.20;81.90;;;;;;4994354;28;20470;-77
2022/03/06 06:43:21;;;;;;;23.17;15.52;;;3.10;83.10;;;;;;4993668;28;20038;-77
2022/03/06 06:45:47;;;;;;;22.45;14.90;;;2.90;83.50;;;;;;4981681;28;20026;-78
2022/03/06 06:48:12;;;;;;;23.80;15.50;;;2.80;84.50;;;;;;4993622;28;20061;-80
2022/03/06 06:50:38;;;;;;;21.80;15.07;;;2.60;85.40;;;;;;4993284;28;20789;-84
2022/03/06 06:53:04;;;;;;;18.45;11.75;;;2.70;86.80;;;;;;4992836;28;20026;-81
2022/03/06 06:55:30;;;;;;;21.92;14.57;;;2.70;88.80;;;;;;4993266;28;20113;-82
2022/03/06 06:57:55;;;;;;;19.38;13.23;;;3.00;87.60;;;;;;4993522;28;20105;-82
2022/03/06 07:00:21;;;;;;;19.55;13.02;;;2.90;87.00;;;;;;4993287;28;20088;-80
2022/03/06 07:02:47;;;;;;;19.27;11.68;;;2.90;87.20;;;;;;4993469;28;20398;-80
2022/03/06 07:05:13;;;;;;;23.30;12.57;;;3.10;89.90;;;;;;4993349;28;20034;-80
2022/03/06 07:07:39;;;;;;;18.10;12.05;;;3.30;88.50;;;;;;4993744;28;20019;-79
2022/03/06 07:10:06;;;;;;;18.08;11.52;;;3.60;87.40;;;;;;4993080;28;20046;-79
2022/03/06 07:12:55;;;;;;;19.85;12.80;;;3.60;85.20;;;;;;4992015;28;20562;-78
2022/03/06 07:15:27;;;;;;;20.27;13.35;;;3.50;85.60;;;;;;4992699;28;20038;-78
2022/03/06 07:17:54;;;;;;;17.80;12.80;;;3.30;86.60;;;;;;4993888;28;20026;-77
2022/03/06 07:20:20;;;;;;;16.30;11.10;;;3.20;88.40;;;;;;4993044;28;20031;-77
2022/03/06 07:22:45;;;;;;;18.75;12.75;;;3.40;89.20;;;;;;4993362;28;20030;-77
2022/03/06 07:25:11;;;;;;;16.50;10.63;;;3.40;87.80;;;;;;4992807;28;20043;-78
2022/03/06 07:27:37;;;;;;;18.67;11.95;;;3.60;88.60;;;;;;4992532;28;20025;-83
2022/03/06 07:30:03;;;;;;;15.68;11.52;;;3.80;88.50;;;;;;4993143;28;20046;-81
2022/03/06 07:32:28;;;;;;;22.83;11.98;;;3.70;86.60;;;;;;4990451;28;20153;-80
2022/03/06 07:34:54;;;;;;;12.90;9.65;;;3.70;87.70;;;;;;4991398;28;20470;-79
2022/03/06 07:37:19;;;;;;;17.05;11.57;;;3.70;87.00;;;;;;4991862;28;20023;-79
2022/03/06 07:39:45;;;;;;;15.00;9.43;;;3.80;86.60;;;;;;4993960;28;20039;-79
2022/03/06 07:42:11;;;;;;;18.15;11.60;;;3.80;88.10;;;;;;4995125;28;20027;-80
2022/03/06 07:44:36;;;;;;;17.60;11.30;;;3.60;87.30;;;;;;4993200;28;20393;-79
2022/03/06 07:47:02;;;;;;;16.58;11.43;;;3.60;89.00;;;;;;4993134;28;20081;-82
2022/03/06 07:49:28;;;;;;;15.95;10.05;;;3.60;88.20;;;;;;4992677;28;20042;-80
2022/03/06 07:51:53;;;;;;;17.73;11.38;;;3.80;90.60;;;;;;4993023;28;20408;-79
2022/03/06 07:54:19;;;;;;;15.05;10.57;;;4.00;88.20;;;;;;4992279;28;20026;-80
2022/03/06 07:56:48;;;;;;;15.00;9.77;;;4.10;87.30;;;;;;4992218;28;20030;-81
2022/03/06 07:59:14;;;;;;;21.88;9.70;;;4.10;87.20;;;;;;4990028;28;20519;-80
2022/03/06 08:01:40;;;;;;;14.55;10.75;;;3.90;88.20;;;;;;4992888;28;20050;-81
2022/03/06 08:04:05;;;;;;;13.27;9.48;;;3.80;88.30;;;;;;4992664;28;20045;-84
2022/03/06 08:06:31;;;;;;;16.20;9.18;;;3.80;89.00;;;;;;4993296;28;20030;-81
2022/03/06 08:08:57;;;;;;;15.55;9.93;;;3.80;88.80;;;;;;4993031;28;20036;-82
2022/03/06 08:11:23;;;;;;;17.23;10.52;;;3.90;89.10;;;;;;4992473;28;20501;-83
2022/03/06 08:13:48;;;;;;;16.50;10.10;;;3.90;88.50;;;;;;4991908;28;20060;-78
2022/03/06 08:16:14;;;;;;;15.60;10.48;;;3.80;89.00;;;;;;4992956;28;20351;-79
2022/03/06 08:18:39;;;;;;;16.02;9.52;;;3.80;89.90;;;;;;4993035;28;20072;-82
2022/03/06 08:21:05;;;;;;;15.20;9.45;;;4.00;90.00;;;;;;4992252;28;20085;-80
2022/03/06 08:23:31;;;;;;;15.57;9.13;;;4.20;89.40;;;;;;4992502;28;20049;-80
2022/03/06 08:25:56;;;;;;;14.43;8.98;;;4.10;88.30;;;;;;4994205;28;20022;-82
2022/03/06 08:28:22;;;;;;;13.65;8.80;;;4.00;89.00;;;;;;4995785;28;20520;-81
2022/03/06 08:30:47;;;;;;;13.60;9.02;;;4.10;89.20;;;;;;4995429;28;20026;-82
2022/03/06 08:33:13;;;;;;;14.77;9.13;;;4.00;88.90;;;;;;4995641;28;20029;-80
2022/03/06 08:35:39;;;;;;;14.20;9.15;;;4.00;89.80;;;;;;4995682;28;20033;-79
2022/03/06 08:38:04;;;;;;;13.45;8.95;;;4.10;89.90;;;;;;4995798;28;20033;-82
2022/03/06 08:40:31;;;;;;;15.02;8.23;;;4.30;89.00;;;;;;4995394;28;20045;-76
2022/03/06 08:42:57;;;;;;;15.35;8.05;;;4.30;88.70;;;;;;4992784;28;20456;-81
2022/03/06 08:45:23;;;;;;;13.27;8.35;;;4.40;88.10;;;;;;4995759;28;20106;-79
2022/03/06 08:47:48;;;;;;;11.50;7.72;;;4.40;87.70;;;;;;4996290;28;20047;-79
2022/03/06 08:50:14;;;;;;;14.32;8.15;;;4.40;87.60;;;;;;4995158;28;20028;-79
2022/03/06 08:52:39;;;;;;;12.93;7.63;;;4.50;88.80;;;;;;4994660;28;20081;-79
2022/03/06 08:55:06;;;;;;;10.73;8.07;;;4.80;88.30;;;;;;4994704;28;20040;-80
2022/03/06 08:57:31;;;;;;;12.90;7.90;;;5.00;86.30;;;;;;4995613;28;20108;-82
2022/03/06 08:59:57;;;;;;;12.02;7.28;;;4.90;85.30;;;;;;4995571;28;20486;-82
2022/03/06 09:02:23;;;;;;;10.90;7.63;;;4.90;85.20;;;;;;4995578;28;20022;-83
2022/03/06 09:04:48;;;;;;;11.60;7.13;;;5.00;85.60;;;;;;4995124;28;20045;-83
2022/03/06 09:07:14;;;;;;;11.77;7.05;;;5.10;84.90;;;;;;4995042;28;20076;-81
2022/03/06 09:09:39;;;;;;;12.27;7.15;;;5.20;84.60;;;;;;4995379;28;20031;-82
2022/03/06 09:12:06;;;;;;;13.02;7.07;;;5.30;84.30;;;;;;4994981;28;20117;-79
2022/03/06 09:14:31;;;;;;;10.93;5.88;;;5.30;82.20;;;;;;4994795;28;20041;-75
2022/03/06 09:16:57;;;;;;;8.77;5.88;;;5.20;83.90;;;;;;4995185;28;20030;-74
2022/03/06 09:19:23;;;;;;;10.25;6.03;;;5.40;82.10;;;;;;4995373;28;20049;-76
2022/03/06 09:21:49;;;;;;;11.07;6.40;;;5.20;82.90;;;;;;4995478;28;20114;-76
2022/03/06 09:24:14;;;;;;;7.10;5.45;;;5.30;83.60;;;;;;4995035;28;20125;-76
2022/03/06 09:26:40;;;;;;;13.40;6.28;;;5.40;82.80;;;;;;4995231;28;20429;-76
2022/03/06 09:29:06;;;;;;;9.75;5.47;;;5.50;80.80;;;;;;4993518;28;20461;-75
2022/03/06 09:31:31;;;;;;;9.00;5.60;;;5.40;81.40;;;;;;4993733;28;20486;-75
2022/03/06 09:34:06;;;;;;;9.38;5.50;;;5.50;82.10;;;;;;4994362;28;20092;-76
2022/03/06 09:36:37;;;;;;;10.52;5.80;;;5.80;80.50;;;;;;4994679;28;20034;-76
2022/03/06 09:39:04;;;;;;;10.93;6.47;;;5.90;79.30;;;;;;4994480;28;20486;-76
2022/03/06 09:41:30;;;;;;;8.60;5.20;;;5.90;77.70;;;;;;4995206;28;20062;-76
2022/03/06 09:44:02;;;;;;;9.38;5.38;;;5.80;78.20;;;;;;4994262;28;20042;-81
2022/03/06 09:46:31;;;;;;;9.90;5.40;;;5.90;78.60;;;;;;4992975;28;20490;-80
2022/03/06 09:48:56;;;;;;;8.43;5.93;;;6.00;77.00;;;;;;4994883;28;20022;-79
2022/03/06 09:51:22;;;;;;;8.70;5.10;;;6.10;77.60;;;;;;4994323;28;20388;-78
2022/03/06 09:53:48;;;;;;;8.98;5.30;;;6.20;76.70;;;;;;4994106;28;20030;-77
2022/03/06 09:56:13;;;;;;;10.52;5.35;;;6.30;75.90;;;;;;4994692;28;20110;-77
2022/03/06 09:58:39;;;;;;;8.70;4.93;;;6.30;75.30;;;;;;4994346;28;20034;-76
2022/03/06 10:01:04;;;;;;;9.70;4.70;;;6.40;74.60;;;;;;4994611;28;20058;-78
2022/03/06 10:03:35;;;;;;;7.50;4.78;;;6.50;74.00;;;;;;4994270;28;20113;-77
2022/03/06 10:06:04;;;;;;;7.05;4.63;;;6.50;74.20;;;;;;4994198;28;20034;-77
2022/03/06 10:08:30;;;;;;;7.00;4.82;;;6.50;73.50;;;;;;4994528;28;20026;-77
2022/03/06 10:11:04;;;;;;;8.55;4.70;;;6.60;73.90;;;;;;4994624;28;20470;-76
2022/03/06 10:13:37;;;;;;;6.65;5.18;;;6.80;73.40;;;;;;4994548;28;20386;-76
2022/03/06 10:16:17;;;;;;;6.78;4.63;;;7.20;73.30;;;;;;4994330;28;20034;-78
2022/03/06 10:18:48;;;;;;;10.93;5.20;;;7.40;71.40;;;;;;4993996;28;20030;-78
2022/03/06 10:21:27;;;;;;;11.02;5.10;;;7.50;68.50;;;;;;4994450;28;20031;-77
2022/03/06 10:23:55;;;;;;;8.07;5.05;;;7.30;69.50;;;;;;4993706;28;20056;-78
2022/03/06 10:26:23;;;;;;;7.20;5.25;;;7.30;69.20;;;;;;4993442;28;20030;-77
2022/03/06 10:29:02;;;;;;;7.35;4.65;;;7.40;68.60;;;;;;4993811;28;20033;-77
2022/03/06 10:31:30;;;;;;;10.20;5.13;;;7.50;69.40;;;;;;4986220;28;20030;-77
2022/03/06 10:34:08;;;;;;;7.10;4.88;;;7.70;67.60;;;;;;4993958;28;20105;-78
2022/03/06 10:36:39;;;;;;;8.20;5.32;;;7.80;67.90;;;;;;4993915;28;20425;-77
2022/03/06 10:39:20;;;;;;;10.13;5.32;;;8.00;66.50;;;;;;4992539;28;20105;-80
2022/03/06 10:41:48;;;;;;;8.48;4.97;;;8.00;67.40;;;;;;4993958;28;20066;-78
2022/03/06 10:44:14;;;;;;;8.73;4.85;;;8.10;65.60;;;;;;4993658;28;20044;-79
2022/03/06 10:46:41;;;;;;;6.63;5.10;;;8.20;65.00;;;;;;4993942;28;20031;-79
2022/03/06 10:49:12;;;;;;;7.80;4.97;;;8.10;64.60;;;;;;4993416;28;20077;-75
2022/03/06 10:51:47;;;;;;;7.32;4.63;;;8.20;66.30;;;;;;4993919;28;20109;-75
2022/03/06 10:54:14;;;;;;;6.72;4.32;;;8.40;64.40;;;;;;4993551;28;20054;-75
2022/03/06 10:56:47;;;;;;;6.15;3.78;;;8.60;62.50;;;;;;4993549;28;20061;-74
2022/03/06 10:59:14;;;;;;;7.60;4.75;;;8.90;63.90;;;;;;4994075;28;20042;-75
2022/03/06 11:01:40;;;;;;;9.48;4.85;;;9.00;61.40;;;;;;4993697;28;20037;-75
2022/03/06 11:04:06;;;;;;;7.55;5.13;;;8.90;60.20;;;;;;4993647;28;20464;-74
2022/03/06 11:06:41;;;;;;;8.13;5.38;;;8.90;59.10;;;;;;4993478;28;20497;-74
2022/03/06 11:09:14;;;;;;;8.10;4.75;;;8.80;59.20;;;;;;4993612;28;20122;-74
2022/03/06 11:11:41;;;;;;;6.13;4.70;;;8.60;57.70;;;;;;4993377;28;20030;-74
2022/03/06 11:14:08;;;;;;;6.22;4.85;;;8.60;57.60;;;;;;4993091;28;20030;-74
2022/03/06 11:16:41;;;;;;;7.18;4.78;;;8.40;58.50;;;;;;4993541;28;20110;-75
2022/03/06 11:19:08;;;;;;;7.47;5.22;;;8.60;59.60;;;;;;4993236;28;20027;-75
2022/03/06 11:21:35;;;;;;;7.22;4.30;;;8.90;56.60;;;;;;4993009;28;20548;-75
2022/03/06 11:24:19;;;;;;;6.80;5.10;;;8.90;56.90;;;;;;4993143;28;20042;-75
2022/03/06 11:26:48;;;;;;;5.80;4.20;;;9.00;56.10;;;;;;4993332;28;20101;-75
2022/03/06 11:29:54;;;;;;;7.75;4.70;;;9.30;55.90;;;;;;4993505;28;20018;-78
2022/03/06 11:32:39;;;;;;;7.10;4.60;;;9.70;56.60;;;;;;4993024;28;20030;-78
2022/03/06 11:35:05;;;;;;;7.35;4.60;;;9.90;55.20;;;;;;4992975;28;20034;-78
2022/03/06 11:37:49;;;;;;;6.20;4.22;;;9.90;55.30;;;;;;4992824;28;20516;-80
2022/03/06 11:40:48;;;;;;;6.72;4.63;;;9.80;58.00;;;;;;4992378;28;20445;-80
2022/03/06 11:43:35;;;;;;;7.25;4.80;;;10.10;56.60;;;;;;4992732;28;20485;-80
2022/03/06 11:46:24;;;;;;;7.95;5.35;;;10.10;54.70;;;;;;4981157;28;20034;-78
2022/03/06 11:48:50;;;;;;;8.05;5.18;;;9.80;54.20;;;;;;4991022;28;20022;-81
2022/03/06 11:51:19;;;;;;;6.70;3.95;;;9.60;54.30;;;;;;4993087;28;20026;-81
2022/03/06 11:53:53;;;;;;;7.75;5.28;;;9.30;55.20;;;;;;4983150;28;20049;-81
2022/03/06 11:56:34;;;;;;;7.63;4.93;;;9.30;53.80;;;;;;4983273;28;20030;-81
2022/03/06 11:59:05;;;;;;;7.95;4.38;;;9.20;54.10;;;;;;4985769;28;20042;-79
2022/03/06 12:01:35;;;;;;;8.07;4.90;;;9.20;55.50;;;;;;4996525;28;20069;-79
2022/03/06 12:04:07;;;;;;;8.60;4.90;;;8.90;55.00;;;;;;4996327;28;20125;-79
2022/03/06 12:06:54;;;;;;;8.40;5.68;;;8.40;54.80;;;;;;4996028;28;20065;-78
2022/03/06 12:09:22;;;;;;;7.28;5.25;;;8.30;55.50;;;;;;4996193;28;20500;-79
2022/03/06 12:11:49;;;;;;;10.90;4.95;;;8.40;56.00;;;;;;4996013;28;20028;-79
2022/03/06 12:14:19;;;;;;;6.25;5.07;;;8.80;57.10;;;;;;4996598;28;20454;-80
2022/03/06 12:17:03;;;;;;;8.48;5.40;;;9.20;53.80;;;;;;4994947;28;20038;-78
2022/03/06 12:19:29;;;;;;;8.20;5.30;;;9.40;54.50;;;;;;4996660;28;20049;-79
2022/03/06 12:22:27;;;;;;;6.97;5.32;;;9.60;55.00;;;;;;4996048;28;20023;-81
2022/03/06 12:25:11;;;;;;;6.75;5.20;;;9.50;51.80;;;;;;4963609;28;20081;-80
2022/03/06 12:27:39;;;;;;;6.03;5.00;;;9.50;53.40;;;;;;4995813;28;20378;-80
2022/03/06 12:30:11;;;;;;;6.47;4.75;;;9.30;51.80;;;;;;4996127;28;20038;-80
2022/03/06 12:32:38;;;;;;;8.43;6.07;;;9.40;53.20;;;;;;4983660;28;20027;-79
2022/03/06 12:35:15;;;;;;;8.35;5.55;;;9.60;53.10;;;;;;4996288;28;20068;-79
2022/03/06 12:37:49;;;;;;;6.72;4.68;;;9.40;52.00;;;;;;4996161;28;20058;-79
2022/03/06 12:40:24;;;;;;;6.78;5.00;;;9.40;54.90;;;;;;4995755;28;20076;-78
2022/03/06 12:43:07;;;;;;;7.05;5.55;;;9.60;54.60;;;;;;4968408;28;20060;-77
2022/03/06 12:45:35;;;;;;;6.10;4.95;;;9.90;52.80;;;;;;4995571;28;20034;-78